createdAt,value
2019-02-17T00:01:41.258Z,15.03
2019-02-17T00:06:47.480Z,13.70
2019-02-17T00:11:53.302Z,14.23
2019-02-17T00:16:58.867Z,14.27
2019-02-17T00:22:07.813Z,13.73
2019-02-17T00:27:15.773Z,12.77
2019-02-17T00:32:21.478Z,14.20
2019-02-17T00:37:27.016Z,13.13
2019-02-17T00:42:32.681Z,14.43
2019-02-17T00:47:39.906Z,12.67
2019-02-17T00:52:47.063Z,12.10
2019-02-17T00:57:55.888Z,12.33
2019-02-17T01:03:08.448Z,12.17
2019-02-17T01:08:14.149Z,10.87
2019-02-17T01:13:20.155Z,12.87
2019-02-17T01:18:28.895Z,12.17
2019-02-17T01:23:36.779Z,12.40
2019-02-17T01:28:44.472Z,12.17
2019-02-17T01:33:50.076Z,11.23
2019-02-17T01:38:56.426Z,11.70
2019-02-17T01:44:10.100Z,9.60
2019-02-17T01:49:15.733Z,10.23
2019-02-17T01:54:26.556Z,9.00
2019-02-17T01:59:42.455Z,10.07
2019-02-17T02:09:53.194Z,9.10
2019-02-17T02:14:58.895Z,8.60
2019-02-17T02:20:05.557Z,9.10
2019-02-17T02:25:13.029Z,8.47
2019-02-17T02:30:18.727Z,8.67
2019-02-17T02:35:24.713Z,7.23
2019-02-17T02:40:32.004Z,7.60
2019-02-17T02:45:37.557Z,7.00
2019-02-17T02:50:43.306Z,6.57
2019-02-17T02:55:48.997Z,5.53
2019-02-17T03:00:55.101Z,6.43
2019-02-17T03:06:24.526Z,5.50
2019-02-17T03:11:30.195Z,5.87
2019-02-17T03:16:40.378Z,6.57
2019-02-17T03:21:45.971Z,6.30
2019-02-17T03:26:52.195Z,5.43
2019-02-17T03:32:02.543Z,4.97
2019-02-17T03:37:10.133Z,5.43
2019-02-17T03:42:17.420Z,4.70
2019-02-17T03:47:23.142Z,6.63
2019-02-17T03:52:31.774Z,5.30
2019-02-17T03:57:40.118Z,5.77
2019-02-17T04:02:45.710Z,5.73
2019-02-17T04:07:56.629Z,5.80
2019-02-17T04:13:04.014Z,5.57
2019-02-17T04:18:09.755Z,5.87
2019-02-17T04:23:17.604Z,5.40
2019-02-17T04:28:24.495Z,5.80
2019-02-17T04:33:30.087Z,6.80
2019-02-17T04:38:35.822Z,6.20
2019-02-17T04:43:43.860Z,6.00
2019-02-17T04:48:49.711Z,6.07
2019-02-17T04:54:00.078Z,5.10
2019-02-17T04:59:10.956Z,5.60
2019-02-17T05:04:16.553Z,6.07
2019-02-17T05:09:23.893Z,5.13
2019-02-17T05:14:29.863Z,6.67
2019-02-17T05:19:39.468Z,6.00
2019-02-17T05:24:45.392Z,5.70
2019-02-17T05:29:57.310Z,6.13
2019-02-17T05:35:03.102Z,5.20
2019-02-17T05:40:13.218Z,5.67
2019-02-17T05:45:18.944Z,5.53
2019-02-17T05:50:25.503Z,6.20
2019-02-17T05:55:34.909Z,5.40
2019-02-17T06:00:41.689Z,4.83
2019-02-17T06:05:47.327Z,4.90
2019-02-17T06:10:54.719Z,5.43
2019-02-17T06:16:00.352Z,5.40
2019-02-17T06:21:06.300Z,5.33
2019-02-17T06:26:11.913Z,6.73
2019-02-17T06:31:17.556Z,5.37
2019-02-17T06:36:26.085Z,6.00
2019-02-17T06:41:33.137Z,6.00
2019-02-17T06:46:47.393Z,5.97
2019-02-17T06:51:53.346Z,8.23
2019-02-17T06:57:19.168Z,6.50
2019-02-17T07:02:24.836Z,5.53
2019-02-17T07:07:32.825Z,5.77
2019-02-17T07:12:38.656Z,6.13
2019-02-17T07:17:45.539Z,6.13
2019-02-17T07:22:52.227Z,6.07
2019-02-17T07:27:57.889Z,6.10
2019-02-17T07:33:06.833Z,6.10
2019-02-17T07:38:13.175Z,7.13
2019-02-17T07:43:18.984Z,8.00
2019-02-17T07:48:30.024Z,8.50
2019-02-17T07:53:38.571Z,10.80
2019-02-17T07:58:50.186Z,14.23
2019-02-17T08:04:00.360Z,9.87
2019-02-17T08:09:12.058Z,8.90
2019-02-17T08:14:17.626Z,12.70
2019-02-17T08:19:28.219Z,15.00
2019-02-17T08:24:36.795Z,13.27
2019-02-17T08:29:45.175Z,12.20
2019-02-17T08:34:53.310Z,10.13
2019-02-17T08:40:02.697Z,10.37
2019-02-17T08:45:15.919Z,11.90
2019-02-17T08:50:21.702Z,13.00
2019-02-17T08:55:30.760Z,11.70
2019-02-17T09:00:40.732Z,10.50
2019-02-17T09:05:52.306Z,10.60
2019-02-17T09:10:59.409Z,11.10
2019-02-17T09:16:08.821Z,11.00
2019-02-17T09:21:18.179Z,9.43
2019-02-17T09:26:29.537Z,9.10
2019-02-17T09:31:54.144Z,9.20
2019-02-17T09:36:59.825Z,9.20
2019-02-17T09:42:11.817Z,9.97
2019-02-17T09:47:18.467Z,12.37
2019-02-17T09:52:26.673Z,9.03
2019-02-17T09:57:33.581Z,9.00
2019-02-17T10:02:39.265Z,10.00
2019-02-17T10:07:47.430Z,8.00
2019-02-17T10:13:05.611Z,9.50
2019-02-17T10:18:11.445Z,10.13
2019-02-17T10:23:25.381Z,10.10
2019-02-17T10:28:31.083Z,9.23
2019-02-17T10:33:43.556Z,9.13
2019-02-17T10:38:50.558Z,19.93
2019-02-17T10:44:06.114Z,11.33
2019-02-17T10:49:11.891Z,10.10
2019-02-17T10:54:23.205Z,12.53
2019-02-17T10:59:29.247Z,10.43
2019-02-17T11:04:35.809Z,15.00
2019-02-17T11:09:41.632Z,10.10
2019-02-17T11:14:55.083Z,10.10
2019-02-17T11:20:04.584Z,9.53
2019-02-17T11:25:10.484Z,8.93
2019-02-17T11:30:19.329Z,10.40
2019-02-17T11:35:29.950Z,9.87
2019-02-17T11:40:35.952Z,8.60
2019-02-17T11:45:43.570Z,9.47
2019-02-17T11:50:53.803Z,10.23
2019-02-17T11:56:00.611Z,11.17
2019-02-17T12:01:10.536Z,12.93
2019-02-17T12:06:19.010Z,15.77
2019-02-17T12:11:29.919Z,16.47
2019-02-17T12:16:37.205Z,23.53
2019-02-17T12:21:59.318Z,18.37
2019-02-17T12:27:31.373Z,18.60
2019-02-17T12:32:40.761Z,19.10
2019-02-17T12:37:49.391Z,18.97
2019-02-17T12:42:56.265Z,20.30
2019-02-17T12:48:10.161Z,17.80
2019-02-17T12:53:21.008Z,18.13
2019-02-17T12:58:30.248Z,18.23
2019-02-17T13:03:38.122Z,16.10
2019-02-17T13:08:47.615Z,18.57
2019-02-17T13:13:57.886Z,16.17
2019-02-17T13:19:07.229Z,15.23
2019-02-17T13:24:13.176Z,13.10
2019-02-17T13:29:22.355Z,12.53
2019-02-17T13:34:28.318Z,12.87
2019-02-17T13:39:34.317Z,13.37
2019-02-17T13:44:46.425Z,13.10
2019-02-17T13:49:56.178Z,12.90
2019-02-17T13:55:04.209Z,13.60
2019-02-17T14:00:15.661Z,14.30
2019-02-17T14:05:21.305Z,15.57
2019-02-17T14:10:28.147Z,13.87
2019-02-17T14:15:34.112Z,13.80
2019-02-17T14:20:39.845Z,13.50
2019-02-17T14:25:46.218Z,15.73
2019-02-17T14:30:55.369Z,15.50
2019-02-17T14:36:04.828Z,16.73
2019-02-17T14:41:10.203Z,15.63
2019-02-17T14:46:15.869Z,18.70
2019-02-17T14:51:34.868Z,18.73
2019-02-17T14:56:40.477Z,19.10
2019-02-17T15:01:46.874Z,20.77
2019-02-17T15:06:54.407Z,20.97
2019-02-17T15:12:07.435Z,23.00
2019-02-17T15:17:14.754Z,21.70
2019-02-17T15:22:28.226Z,25.47
2019-02-17T15:27:37.297Z,19.33
2019-02-17T15:33:03.554Z,19.70
2019-02-17T15:37:58.152Z,20.17
2019-02-17T15:48:08.223Z,19.77
2019-02-17T15:53:14.048Z,23.50
2019-02-17T15:58:25.295Z,19.57
2019-02-17T16:03:32.298Z,21.77
2019-02-17T16:08:40.947Z,19.17
2019-02-17T16:13:57.410Z,19.87
2019-02-17T16:19:05.923Z,19.90
2019-02-17T16:24:15.206Z,27.80
2019-02-17T16:29:26.125Z,21.40
2019-02-17T16:34:38.452Z,21.07
2019-02-17T16:39:43.863Z,18.83
2019-02-17T16:44:55.627Z,20.83
2019-02-17T16:50:08.682Z,21.10
2019-02-17T16:55:18.766Z,23.33
2019-02-17T17:00:26.962Z,22.17
2019-02-17T17:05:36.880Z,21.03
2019-02-17T17:10:47.455Z,19.13
2019-02-17T17:15:57.777Z,18.80
2019-02-17T17:21:06.954Z,19.53
2019-02-17T17:26:16.361Z,18.93
2019-02-17T17:31:27.329Z,19.57
2019-02-17T17:36:37.400Z,19.60
2019-02-17T17:41:43.340Z,19.33
2019-02-17T17:46:49.361Z,22.10
2019-02-17T17:52:00.807Z,19.40
2019-02-17T17:57:08.898Z,20.90
2019-02-17T18:02:16.384Z,22.60
2019-02-17T18:07:23.062Z,23.37
2019-02-17T18:12:43.456Z,22.87
2019-02-17T18:17:56.685Z,21.67
2019-02-17T18:23:10.737Z,24.70
2019-02-17T18:28:20.174Z,21.90
2019-02-17T18:33:28.824Z,25.33
2019-02-17T18:38:44.470Z,24.73
2019-02-17T18:44:05.861Z,24.30
2019-02-17T18:49:27.675Z,20.90
2019-02-17T18:54:40.337Z,22.50
2019-02-17T18:59:51.994Z,26.20
2019-02-17T19:05:00.445Z,29.43
2019-02-17T19:10:16.507Z,29.00
2019-02-17T19:15:37.935Z,32.07
2019-02-17T19:20:48.262Z,32.20
2019-02-17T19:25:59.591Z,24.57
2019-02-17T19:31:07.455Z,23.07
2019-02-17T19:36:22.038Z,23.13
2019-02-17T19:41:29.643Z,21.60
2019-02-17T19:46:41.360Z,21.37
2019-02-17T19:52:10.669Z,21.90
2019-02-17T19:57:19.753Z,23.80
2019-02-17T20:02:51.513Z,23.97
2019-02-17T20:08:08.033Z,22.07
2019-02-17T20:13:19.343Z,21.67
2019-02-17T20:18:31.218Z,23.30
2019-02-17T20:23:47.404Z,21.70
2019-02-17T20:29:05.196Z,21.37
2019-02-17T20:34:14.737Z,19.67
2019-02-17T20:39:26.816Z,17.33
2019-02-17T20:44:35.256Z,15.90
2019-02-17T20:49:45.124Z,15.23
2019-02-17T20:54:55.174Z,15.50
2019-02-17T21:00:07.931Z,14.37
2019-02-17T21:05:22.772Z,14.97
2019-02-17T21:10:33.388Z,13.00
2019-02-17T21:15:44.109Z,15.10
2019-02-17T21:20:56.855Z,14.33
2019-02-17T21:26:06.669Z,15.13
2019-02-17T21:31:18.866Z,19.07
2019-02-17T21:36:32.583Z,17.47
2019-02-17T21:41:41.638Z,16.27
2019-02-17T21:46:49.460Z,17.17
2019-02-17T21:52:00.084Z,18.40
2019-02-17T21:57:12.586Z,19.00
2019-02-17T22:02:20.883Z,22.87
2019-02-17T22:07:30.182Z,23.83
2019-02-17T22:12:37.414Z,20.90
2019-02-17T22:17:45.976Z,19.13
2019-02-17T22:22:57.925Z,17.23
2019-02-17T22:28:05.326Z,17.23
2019-02-17T22:33:12.571Z,16.43
2019-02-17T22:38:18.876Z,17.50
2019-02-17T22:43:27.992Z,13.80
2019-02-17T22:48:38.171Z,14.93
2019-02-17T22:53:47.341Z,12.83
2019-02-17T22:58:53.469Z,13.43
2019-02-17T23:04:07.458Z,13.57
2019-02-17T23:09:24.272Z,14.10
2019-02-17T23:14:30.110Z,34.00
2019-02-17T23:19:36.015Z,13.20
2019-02-17T23:24:41.719Z,13.53
2019-02-17T23:29:49.573Z,14.87
2019-02-17T23:34:56.924Z,14.70
2019-02-17T23:40:06.854Z,12.27
2019-02-17T23:45:13.266Z,12.53
2019-02-17T23:56:40.951Z,13.40
